Terminal Aerodrome Forecast
Issued by NWS Des Moines, IA

Home | Current Version | Previous Version | Text Only | Print | Product List | Glossary On
Versions: 1 2 3 4 5 6 7 8 9 10 11 12 13 14 15 16 17 18 19 20 21 22 23 24 25 26 27 28 29 30 31 32 33 34 35 36 37 38 39 40 41
000
FTUS43 KDMX 230525
TAFDSM
TAF
KDSM 230525Z 2306/2406 19014KT 6SM BR SCT004 SCT008 OVC014
     FM231000 19012KT 3SM -DZ BR BKN004 OVC010
     FM231500 17011KT 2SM -RA BR BKN002 OVC007
     FM232000 30008KT 3SM BR SCT002 BKN008 OVC010
     FM240200 33015KT 5SM BR SCT008 BKN015=

USA.gov is the U.S. government's official web portal to all federal, state and local government web resources and services.